Time;durP1;ratioP1;P1;durP2;ratioP2;P2;SDS_P1;SDS_P2;PMS_P1;PMS_P2;Temp;Humidity;BMP_temperature;BMP_pressure;BME280_temperature;BME280_humidity;BME280_pressure;Samples;Min_cycle;Max_cycle;Signal;HPM_P1;HPM_P2
2023/02/15 00:01:16;;;;;;;605.90;63.37;;;;;;;-145.18;100.00;60484.78;5062873;28;20028;-65
2023/02/15 00:03:42;;;;;;;721.20;66.73;;;;;;;-145.18;100.00;60484.78;5059149;28;20033;-65
2023/02/15 00:06:07;;;;;;;625.47;64.40;;;;;;;-145.18;100.00;60484.78;5052366;28;20492;-65
2023/02/15 00:08:33;;;;;;;416.00;54.50;;;;;;;-145.18;100.00;60484.78;5036505;28;20029;-65
2023/02/15 00:11:06;;;;;;;518.70;59.67;;;;;;;-145.18;100.00;60484.78;5071686;28;20055;-65
2023/02/15 00:13:32;;;;;;;498.13;57.77;;;;;;;-145.18;100.00;60484.78;5050044;28;20037;-65
2023/02/15 00:16:02;;;;;;;646.30;67.30;;;;;;;-145.18;100.00;60484.78;5053658;28;20111;-65
2023/02/15 00:18:28;;;;;;;358.10;50.00;;;;;;;-145.18;100.00;60484.78;5051600;28;20494;-65
2023/02/15 00:20:53;;;;;;;372.60;50.40;;;;;;;-145.18;100.00;60484.78;5054473;28;20111;-65
2023/02/15 00:23:19;;;;;;;432.97;53.77;;;;;;;-145.18;100.00;60484.78;5051630;28;20389;-65
2023/02/15 00:25:44;;;;;;;501.87;54.97;;;;;;;-145.18;100.00;60484.78;5050058;28;20033;-64
2023/02/15 00:28:09;;;;;;;446.33;52.93;;;;;;;-145.18;100.00;60484.78;5055296;28;20037;-64
2023/02/15 00:30:35;;;;;;;427.63;52.20;;;;;;;-145.18;100.00;60484.78;5052942;28;20107;-64
2023/02/15 00:33:00;;;;;;;463.20;53.43;;;;;;;-145.18;100.00;60484.78;5053626;28;20472;-65
2023/02/15 00:35:25;;;;;;;417.77;49.83;;;;;;;-145.18;100.00;60484.78;5070802;28;20426;-65
2023/02/15 00:37:52;;;;;;;310.50;46.80;;;;;;;-145.18;100.00;60484.78;5049849;28;20056;-65
2023/02/15 00:40:17;;;;;;;346.23;47.43;;;;;;;-145.18;100.00;60484.78;5052296;28;20029;-64
2023/02/15 00:42:43;;;;;;;256.27;45.43;;;;;;;-145.18;100.00;60484.78;5052349;28;20499;-65
2023/02/15 00:45:09;;;;;;;352.10;49.53;;;;;;;-145.18;100.00;60484.78;5052155;28;20103;-64
2023/02/15 00:47:34;;;;;;;303.57;47.73;;;;;;;-145.18;100.00;60484.78;5057168;28;20036;-65
2023/02/15 00:49:59;;;;;;;259.60;47.27;;;;;;;-145.18;100.00;60484.78;5071531;28;20020;-64
2023/02/15 00:52:25;;;;;;;253.60;48.50;;;;;;;-145.18;100.00;60484.78;5055555;28;20464;-65
2023/02/15 00:54:50;;;;;;;205.67;46.90;;;;;;;-145.18;100.00;60484.78;5049955;28;20032;-65
2023/02/15 00:57:16;;;;;;;194.90;46.87;;;;;;;-145.18;100.00;60484.78;5047727;28;20029;-64
2023/02/15 00:59:41;;;;;;;183.83;45.17;;;;;;;-145.18;100.00;60484.78;5062604;28;20036;-65
2023/02/15 01:02:06;;;;;;;161.87;46.13;;;;;;;-145.18;100.00;60484.78;5055512;28;20122;-64
2023/02/15 01:04:32;;;;;;;187.43;46.17;;;;;;;-145.18;100.00;60484.78;5054129;28;20543;-65
2023/02/15 01:06:57;;;;;;;184.43;45.63;;;;;;;-145.18;100.00;60484.78;5057651;28;20055;-64
2023/02/15 01:09:23;;;;;;;179.87;44.80;;;;;;;-145.18;100.00;60484.78;5048912;28;20415;-64
2023/02/15 01:11:48;;;;;;;156.73;43.50;;;;;;;-145.18;100.00;60484.78;5051878;28;20025;-65
2023/02/15 01:14:14;;;;;;;161.73;44.40;;;;;;;-145.18;100.00;60484.78;5054782;28;20021;-65
2023/02/15 01:16:39;;;;;;;154.03;43.90;;;;;;;-145.18;100.00;60484.78;5055371;28;20500;-64
2023/02/15 01:19:06;;;;;;;159.97;42.83;;;;;;;-145.18;100.00;60484.78;5053568;28;20032;-65
2023/02/15 01:21:34;;;;;;;162.37;42.07;;;;;;;-145.18;100.00;60484.78;5061879;28;20483;-64
2023/02/15 01:24:00;;;;;;;148.20;42.03;;;;;;;-145.18;100.00;60484.78;5051095;28;20544;-65
2023/02/15 01:26:25;;;;;;;153.77;42.27;;;;;;;-145.18;100.00;60484.78;5058696;28;20647;-65
2023/02/15 01:28:51;;;;;;;143.33;42.40;;;;;;;-145.18;100.00;60484.78;5057364;28;20104;-64
2023/02/15 01:31:19;;;;;;;137.50;42.80;;;;;;;-145.18;100.00;60484.78;5054542;28;20028;-64
2023/02/15 01:33:46;;;;;;;136.43;40.53;;;;;;;-145.18;100.00;60484.78;5049593;28;20040;-64
2023/02/15 01:36:11;;;;;;;147.07;42.43;;;;;;;-145.18;100.00;60484.78;5054985;28;20485;-64
2023/02/15 01:38:37;;;;;;;143.90;40.40;;;;;;;-145.18;100.00;60484.78;5050048;28;20037;-65
2023/02/15 01:41:22;;;;;;;146.20;41.80;;;;;;;-145.18;100.00;60484.78;5061090;28;20475;-64
2023/02/15 01:43:56;;;;;;;150.83;42.67;;;;;;;-145.18;100.00;60484.78;5051402;28;20031;-64
2023/02/15 01:46:27;;;;;;;139.70;42.10;;;;;;;-145.18;100.00;60484.78;5047966;28;20024;-64
2023/02/15 01:48:59;;;;;;;136.93;40.90;;;;;;;-145.18;100.00;60484.78;5050418;28;20310;-63
2023/02/15 01:51:29;;;;;;;148.83;40.57;;;;;;;-145.18;100.00;60484.78;5054260;28;20028;-64
2023/02/15 01:54:05;;;;;;;140.30;39.37;;;;;;;-145.18;100.00;60484.78;5050996;28;20366;-63
2023/02/15 01:56:34;;;;;;;136.60;40.63;;;;;;;-145.18;100.00;60484.78;5053146;28;20032;-64
2023/02/15 01:59:06;;;;;;;143.23;40.27;;;;;;;-145.18;100.00;60484.78;5053630;28;20344;-63
2023/02/15 02:01:31;;;;;;;147.38;41.13;;;;;;;-145.18;100.00;60484.78;5053484;28;20534;-66
2023/02/15 02:04:08;;;;;;;149.53;39.40;;;;;;;-145.18;100.00;60484.78;5064620;22;20060;-60
2023/02/15 02:06:37;;;;;;;140.77;40.07;;;;;;;-145.18;100.00;60484.78;5057143;28;20052;-60
2023/02/15 02:09:03;;;;;;;147.37;41.77;;;;;;;-145.18;100.00;60484.78;5058267;28;20033;-62
2023/02/15 02:11:29;;;;;;;139.20;39.70;;;;;;;-145.18;100.00;60484.78;5056632;28;20024;-63
2023/02/15 02:13:55;;;;;;;139.30;40.53;;;;;;;-145.18;100.00;60484.78;5068108;28;20438;-61
2023/02/15 02:16:40;;;;;;;146.10;39.93;;;;;;;-145.18;100.00;60484.78;5068446;28;20020;-62
2023/02/15 02:19:20;;;;;;;139.13;40.90;;;;;;;-145.18;100.00;60484.78;5065154;28;20110;-61
2023/02/15 02:22:01;;;;;;;128.30;38.87;;;;;;;-145.18;100.00;60484.78;5063312;28;20513;-59
2023/02/15 02:24:41;;;;;;;124.17;37.90;;;;;;;-145.18;100.00;60484.78;5062118;28;20017;-60
2023/02/15 02:27:26;;;;;;;136.63;39.30;;;;;;;-145.18;100.00;60484.78;5053397;28;20037;-59
2023/02/15 02:30:34;;;;;;;163.97;43.00;;;;;;;-145.18;100.00;60484.78;5057976;28;20132;-62
2023/02/15 02:33:33;;;;;;;166.27;44.43;;;;;;;-145.18;100.00;60484.78;5047316;28;20040;-61
2023/02/15 02:36:20;;;;;;;148.40;42.33;;;;;;;-145.18;100.00;60484.78;5061049;28;20060;-59
2023/02/15 02:38:54;;;;;;;162.17;44.40;;;;;;;-145.18;100.00;60484.78;5063888;28;20032;-59
2023/02/15 02:41:44;;;;;;;159.20;46.50;;;;;;;-145.18;100.00;60484.78;5061087;28;20299;-59
2023/02/15 02:44:19;;;;;;;168.67;46.00;;;;;;;-145.18;100.00;60484.78;5062629;28;20092;-59
2023/02/15 02:46:51;;;;;;;178.17;48.33;;;;;;;-145.18;100.00;60484.78;5055926;28;20032;-59
2023/02/15 02:49:27;;;;;;;162.50;45.30;;;;;;;-145.18;100.00;60484.78;5067755;28;20070;-60
2023/02/15 02:51:58;;;;;;;153.37;44.27;;;;;;;-145.18;100.00;60484.78;5065511;28;20032;-60
2023/02/15 02:54:24;;;;;;;;;;;;;;;-145.18;100.00;60484.78;5056679;28;20464;-60
2023/02/15 02:56:52;;;;;;;157.73;42.37;;;;;;;-145.18;100.00;60484.78;5059912;28;19923;-59
2023/02/15 02:59:30;;;;;;;146.97;38.20;;;;;;;-145.18;100.00;60484.78;5064116;28;20109;-60
2023/02/15 03:02:12;;;;;;;133.47;39.47;;;;;;;-145.18;100.00;60484.78;5062240;28;20040;-60
2023/02/15 03:04:44;;;;;;;137.43;40.07;;;;;;;-145.18;100.00;60484.78;5060912;28;20279;-59
2023/02/15 03:07:14;;;;;;;133.45;39.40;;;;;;;-145.18;100.00;60484.78;5073969;28;20633;-67
2023/02/15 03:09:44;;;;;;;143.40;40.20;;;;;;;-145.18;100.00;60484.78;5059486;28;20464;-67
2023/02/15 03:12:13;;;;;;;132.53;40.70;;;;;;;-145.18;100.00;60484.78;5055099;28;20033;-64
2023/02/15 03:14:43;;;;;;;139.23;41.40;;;;;;;-145.18;100.00;60484.78;5051880;28;20259;-67
2023/02/15 03:17:11;;;;;;;150.47;42.50;;;;;;;-145.18;100.00;60484.78;5055933;28;20480;-67
2023/02/15 03:19:38;;;;;;;144.17;42.07;;;;;;;-145.18;100.00;60484.78;5049648;28;20031;-67
2023/02/15 03:22:10;;;;;;;145.40;41.57;;;;;;;-145.18;100.00;60484.78;5054673;28;20082;-67
2023/02/15 03:25:05;;;;;;;160.10;43.27;;;;;;;-145.18;100.00;60484.78;5054333;28;20029;-66
2023/02/15 03:27:40;;;;;;;152.90;43.27;;;;;;;-145.18;100.00;60484.78;5051786;28;20076;-66
2023/02/15 03:30:07;;;;;;;169.17;44.47;;;;;;;-145.18;100.00;60484.78;5050837;28;20035;-66
2023/02/15 03:32:34;;;;;;;177.27;46.97;;;;;;;-145.18;100.00;60484.78;5053582;28;20282;-67
2023/02/15 03:35:00;;;;;;;174.47;45.57;;;;;;;-145.18;100.00;60484.78;5052602;28;20017;-62
2023/02/15 03:37:36;;;;;;;153.70;42.37;;;;;;;-145.18;100.00;60484.78;5055138;28;20282;-59
2023/02/15 03:43:12;;;;;;;142.57;40.43;;;;;;;-145.18;100.00;60484.78;5051794;28;20462;-60
2023/02/15 03:45:54;;;;;;;137.93;41.40;;;;;;;-145.18;100.00;60484.78;5053890;28;20041;-60
2023/02/15 03:48:24;;;;;;;152.63;41.88;;;;;;;-145.18;100.00;60484.78;5054381;28;20481;-60
2023/02/15 03:53:37;;;;;;;160.87;44.63;;;;;;;-145.18;100.00;60484.78;5055642;28;20060;-61
2023/02/15 03:56:03;;;;;;;187.33;47.90;;;;;;;-145.18;100.00;60484.78;5072604;28;20483;-61
2023/02/15 04:04:24;;;;;;;170.93;47.20;;;;;;;-145.18;100.00;60484.78;5059594;28;20035;-60
2023/02/15 04:06:49;;;;;;;161.33;44.13;;;;;;;-145.18;100.00;60484.78;5054850;28;20490;-60
2023/02/15 04:11:59;;;;;;;169.60;46.50;;;;;;;-145.18;100.00;60484.78;5053079;28;20112;-62
2023/02/15 04:17:09;;;;;;;162.67;45.37;;;;;;;-145.18;100.00;60484.78;5055064;28;20035;-62
2023/02/15 04:25:14;;;;;;;162.67;44.37;;;;;;;-145.18;100.00;60484.78;5063538;28;20091;-62
2023/02/15 04:27:45;;;;;;;162.63;44.80;;;;;;;-145.18;100.00;60484.78;5052454;28;20275;-60
2023/02/15 04:30:12;;;;;;;184.17;47.40;;;;;;;-145.18;100.00;60484.78;5051256;28;20025;-60
2023/02/15 04:32:38;;;;;;;165.87;47.93;;;;;;;-145.18;100.00;60484.78;5057947;28;20044;-60
2023/02/15 04:35:05;;;;;;;172.30;46.70;;;;;;;-145.18;100.00;60484.78;5062617;28;20060;-60
2023/02/15 04:37:31;;;;;;;175.37;47.90;;;;;;;-145.18;100.00;60484.78;5054429;28;20029;-60
2023/02/15 04:39:58;;;;;;;175.60;48.17;;;;;;;-145.18;100.00;60484.78;5051503;28;20024;-61
2023/02/15 04:42:25;;;;;;;184.00;47.70;;;;;;;-145.18;100.00;60484.78;5062807;28;20033;-60
2023/02/15 04:44:50;;;;;;;170.00;45.63;;;;;;;-145.18;100.00;60484.78;5058097;28;20070;-60
2023/02/15 04:47:16;;;;;;;178.57;47.77;;;;;;;-145.18;100.00;60484.78;5053382;28;20029;-60
2023/02/15 04:49:41;;;;;;;175.47;47.63;;;;;;;-145.18;100.00;60484.78;5065728;28;20100;-60
2023/02/15 04:52:06;;;;;;;175.23;47.03;;;;;;;-145.18;100.00;60484.78;5064878;28;20494;-62
2023/02/15 04:54:32;;;;;;;182.00;47.73;;;;;;;-145.18;100.00;60484.78;5070395;28;20668;-61
2023/02/15 04:56:57;;;;;;;177.63;47.23;;;;;;;-145.18;100.00;60484.78;5049336;28;20039;-60
2023/02/15 04:59:23;;;;;;;176.83;47.83;;;;;;;-145.18;100.00;60484.78;5058486;28;20099;-61
2023/02/15 05:01:48;;;;;;;185.10;46.87;;;;;;;-145.18;100.00;60484.78;5052348;28;20391;-60
2023/02/15 05:04:14;;;;;;;182.30;47.37;;;;;;;-145.18;100.00;60484.78;5056744;28;20025;-60
2023/02/15 05:06:39;;;;;;;174.30;47.20;;;;;;;-145.18;100.00;60484.78;5060298;28;20114;-61
2023/02/15 05:09:04;;;;;;;192.87;49.00;;;;;;;-145.18;100.00;60484.78;5062794;28;20040;-60
2023/02/15 05:11:30;;;;;;;184.57;49.00;;;;;;;-145.18;100.00;60484.78;5054909;28;20808;-60
2023/02/15 05:13:55;;;;;;;180.30;47.67;;;;;;;-145.18;100.00;60484.78;5050819;28;20388;-60
2023/02/15 05:16:21;;;;;;;174.00;46.07;;;;;;;-145.18;100.00;60484.78;5067402;28;20063;-60
2023/02/15 05:18:46;;;;;;;183.90;47.03;;;;;;;-145.18;100.00;60484.78;5067614;28;20029;-59
2023/02/15 05:21:13;;;;;;;178.73;45.53;;;;;;;-145.18;100.00;60484.78;5049741;28;20025;-60
2023/02/15 05:23:38;;;;;;;185.73;47.20;;;;;;;-145.18;100.00;60484.78;5050899;28;20024;-61
2023/02/15 05:28:58;;;;;;;186.10;45.73;;;;;;;-145.18;100.00;60484.78;4995763;28;20062;-60
2023/02/15 05:31:24;;;;;;;170.33;45.17;;;;;;;-145.18;100.00;60484.78;5050791;28;20118;-60
2023/02/15 05:33:49;;;;;;;159.37;42.57;;;;;;;-145.18;100.00;60484.78;5065037;28;20031;-60
2023/02/15 05:36:15;;;;;;;158.50;42.40;;;;;;;-145.18;100.00;60484.78;5056655;28;20039;-60
2023/02/15 05:38:40;;;;;;;185.80;46.77;;;;;;;-145.18;100.00;60484.78;5051268;28;20044;-60
2023/02/15 05:41:07;;;;;;;186.13;47.00;;;;;;;-145.18;100.00;60484.78;5053083;28;20044;-63
2023/02/15 05:43:33;;;;;;;178.33;44.90;;;;;;;-145.18;100.00;60484.78;5057767;28;20558;-61
2023/02/15 05:45:58;;;;;;;169.07;44.17;;;;;;;-145.18;100.00;60484.78;5049147;28;20120;-61
2023/02/15 05:48:25;;;;;;;167.27;45.50;;;;;;;-145.18;100.00;60484.78;5048689;28;20027;-60
2023/02/15 05:51:05;;;;;;;184.07;46.20;;;;;;;-145.18;100.00;60484.78;5062932;28;20471;-63
2023/02/15 05:53:35;;;;;;;185.87;47.87;;;;;;;-145.18;100.00;60484.78;5060494;28;20071;-62
2023/02/15 05:56:02;;;;;;;186.20;49.10;;;;;;;-145.18;100.00;60484.78;5070284;28;20035;-62
2023/02/15 05:58:30;;;;;;;173.10;47.13;;;;;;;-145.18;100.00;60484.78;5051413;28;20031;-63
2023/02/15 06:00:55;;;;;;;177.80;45.33;;;;;;;-145.18;100.00;60484.78;5051763;28;20115;-62
2023/02/15 06:03:22;;;;;;;173.80;45.90;;;;;;;-145.18;100.00;60484.78;5056956;28;20120;-64
2023/02/15 06:05:48;;;;;;;192.67;49.87;;;;;;;-145.18;100.00;60484.78;5064364;28;20028;-63
2023/02/15 06:08:13;;;;;;;182.47;51.07;;;;;;;-145.18;100.00;60484.78;5048145;28;20430;-62
2023/02/15 06:10:39;;;;;;;186.30;51.47;;;;;;;-145.18;100.00;60484.78;5050145;28;20032;-62
2023/02/15 06:13:05;;;;;;;184.37;48.47;;;;;;;-145.18;100.00;60484.78;5053791;28;20404;-64
2023/02/15 06:15:31;;;;;;;181.80;47.30;;;;;;;-145.18;100.00;60484.78;5049370;28;20031;-62
2023/02/15 06:17:56;;;;;;;179.93;48.43;;;;;;;-145.18;100.00;60484.78;5051004;28;20059;-61
2023/02/15 06:20:22;;;;;;;197.03;52.63;;;;;;;-145.18;100.00;60484.78;5050640;28;20100;-62
2023/02/15 06:22:47;;;;;;;195.03;50.50;;;;;;;-145.18;100.00;60484.78;5051094;28;20033;-62
2023/02/15 06:25:13;;;;;;;201.00;50.57;;;;;;;-145.18;100.00;60484.78;5050796;28;20388;-62
2023/02/15 06:27:41;;;;;;;191.77;49.97;;;;;;;-145.18;100.00;60484.78;5051562;28;20050;-63
2023/02/15 06:30:07;;;;;;;184.83;49.33;;;;;;;-145.18;100.00;60484.78;5049835;28;20074;-62
2023/02/15 06:32:33;;;;;;;170.37;46.70;;;;;;;-145.18;100.00;60484.78;5051280;28;20071;-62
2023/02/15 06:34:58;;;;;;;178.17;45.80;;;;;;;-145.18;100.00;60484.78;5051374;28;20025;-62
2023/02/15 06:37:23;;;;;;;176.60;45.13;;;;;;;-145.18;100.00;60484.78;5049998;28;20379;-62
2023/02/15 06:39:49;;;;;;;167.70;42.47;;;;;;;-145.18;100.00;60484.78;5050106;28;20013;-62
2023/02/15 06:42:14;;;;;;;144.63;40.70;;;;;;;-145.18;100.00;60484.78;5049630;28;20037;-62
2023/02/15 06:44:40;;;;;;;162.10;44.63;;;;;;;-145.18;100.00;60484.78;5051036;28;20027;-62
2023/02/15 06:47:05;;;;;;;187.53;45.77;;;;;;;-145.18;100.00;60484.78;5051104;28;20028;-62
2023/02/15 06:49:30;;;;;;;180.33;46.07;;;;;;;-145.18;100.00;60484.78;5051149;28;20017;-61
2023/02/15 06:51:56;;;;;;;208.37;48.50;;;;;;;-145.18;100.00;60484.78;5055259;28;20039;-59
2023/02/15 06:54:21;;;;;;;195.30;47.20;;;;;;;-145.18;100.00;60484.78;5062100;28;20512;-61
2023/02/15 06:56:46;;;;;;;188.17;49.00;;;;;;;-145.18;100.00;60484.78;5051391;28;20025;-61
2023/02/15 06:59:12;;;;;;;199.13;51.20;;;;;;;-145.18;100.00;60484.78;5042902;28;20023;-60
2023/02/15 07:01:37;;;;;;;206.80;51.23;;;;;;;-145.18;100.00;60484.78;5053254;28;20118;-65
2023/02/15 07:04:03;;;;;;;201.10;50.33;;;;;;;-145.18;100.00;60484.78;5062151;28;20389;-62
2023/02/15 07:06:35;;;;;;;224.10;61.60;;;;;;;-145.18;100.00;60484.78;5059527;28;20025;-61
2023/02/15 07:09:00;;;;;;;227.93;61.03;;;;;;;-145.18;100.00;60484.78;5051502;28;20530;-61
2023/02/15 07:14:09;;;;;;;218.53;57.50;;;;;;;-145.18;100.00;60484.78;5069644;28;20039;-60
2023/02/15 07:16:35;;;;;;;219.07;56.00;;;;;;;-145.18;100.00;60484.78;5069385;28;20021;-60
2023/02/15 07:19:01;;;;;;;215.67;56.43;;;;;;;-145.18;100.00;60484.78;5069285;28;20059;-61
2023/02/15 07:21:27;;;;;;;201.57;54.20;;;;;;;-145.18;100.00;60484.78;5070221;28;20025;-61
2023/02/15 07:23:56;;;;;;;221.20;56.80;;;;;;;-145.18;100.00;60484.78;5050781;28;20029;-63
2023/02/15 07:26:21;;;;;;;215.00;55.47;;;;;;;-145.18;100.00;60484.78;5050594;28;20244;-63
2023/02/15 07:28:47;;;;;;;206.33;55.43;;;;;;;-145.18;100.00;60484.78;5050226;28;20013;-62
2023/02/15 07:31:13;;;;;;;187.93;52.80;;;;;;;-145.18;100.00;60484.78;5066831;28;20079;-61
2023/02/15 07:33:38;;;;;;;162.93;48.97;;;;;;;-145.18;100.00;60484.78;5050581;28;20025;-61
2023/02/15 07:36:04;;;;;;;150.90;46.23;;;;;;;-145.18;100.00;60484.78;5053673;28;20024;-61
2023/02/15 07:38:33;;;;;;;145.03;44.57;;;;;;;-145.18;100.00;60484.78;5054223;28;20104;-61
2023/02/15 07:40:59;;;;;;;122.70;39.30;;;;;;;-145.18;100.00;60484.78;5072560;28;20099;-61
2023/02/15 07:43:25;;;;;;;92.23;32.60;;;;;;;-145.18;100.00;60484.78;5072583;28;20188;-61
2023/02/15 07:45:50;;;;;;;122.23;32.50;;;;;;;-145.18;100.00;60484.78;5061380;28;20028;-61
2023/02/15 07:48:16;;;;;;;94.00;28.90;;;;;;;-145.18;100.00;60484.78;5055121;28;20031;-61
2023/02/15 07:50:41;;;;;;;65.57;26.03;;;;;;;-145.18;100.00;60484.78;5054291;28;20055;-61
2023/02/15 07:53:06;;;;;;;49.07;22.77;;;;;;;-145.18;100.00;60484.78;5054023;28;20035;-61
2023/02/15 07:55:32;;;;;;;62.10;20.30;;;;;;;-145.18;100.00;60484.78;5053225;28;20498;-61
2023/02/15 07:57:57;;;;;;;61.97;19.33;;;;;;;-145.18;100.00;60484.78;5054142;28;20048;-61
2023/02/15 08:00:24;;;;;;;34.07;16.93;;;;;;;-145.18;100.00;60484.78;5053980;28;20028;-62
2023/02/15 08:03:14;;;;;;;27.27;14.87;;;;;;;-145.18;100.00;60484.78;5050256;28;20047;-62
2023/02/15 08:05:44;;;;;;;25.17;14.67;;;;;;;-145.18;100.00;60484.78;5063755;28;20467;-61
2023/02/15 08:08:29;;;;;;;21.53;13.23;;;;;;;-145.18;100.00;60484.78;5072305;28;20097;-61
2023/02/15 08:14:00;;;;;;;20.20;12.05;;;;;;;-145.18;100.00;60484.78;5052295;28;20091;-62
2023/02/15 08:16:26;;;;;;;18.40;11.07;;;;;;;-145.18;100.00;60484.78;5053856;28;20028;-62
2023/02/15 08:18:53;;;;;;;18.40;11.23;;;;;;;-145.18;100.00;60484.78;5053073;28;20036;-62
2023/02/15 08:21:20;;;;;;;19.03;11.83;;;;;;;-145.18;100.00;60484.78;5060251;28;20114;-62
2023/02/15 08:23:45;;;;;;;17.53;11.10;;;;;;;-145.18;100.00;60484.78;5069601;28;20086;-62
2023/02/15 08:26:11;;;;;;;18.97;11.23;;;;;;;-145.18;100.00;60484.78;5053324;28;20459;-63
2023/02/15 08:28:36;;;;;;;18.83;11.13;;;;;;;-145.18;100.00;60484.78;5053654;28;20048;-63
2023/02/15 08:31:07;;;;;;;17.30;11.27;;;;;;;-145.18;100.00;60484.78;5050556;28;20021;-63
2023/02/15 08:33:33;;;;;;;17.67;11.77;;;;;;;-145.18;100.00;60484.78;5053409;28;20031;-62
2023/02/15 08:36:05;;;;;;;18.20;11.90;;;;;;;-145.18;100.00;60484.78;5053827;28;20100;-63
2023/02/15 08:38:31;;;;;;;18.03;11.57;;;;;;;-145.18;100.00;60484.78;5053208;28;20036;-63
2023/02/15 08:40:57;;;;;;;16.38;10.45;;;;;;;-145.18;100.00;60484.78;5063904;28;20389;-64
2023/02/15 08:43:22;;;;;;;18.48;11.40;;;;;;;-145.18;100.00;60484.78;5072142;28;20027;-64
2023/02/15 08:45:47;;;;;;;20.15;10.82;;;;;;;-145.18;100.00;60484.78;5071724;28;20091;-63
2023/02/15 08:48:13;;;;;;;17.02;11.70;;;;;;;-145.18;100.00;60484.78;5048714;28;20025;-63
2023/02/15 08:50:38;;;;;;;15.77;10.75;;;;;;;-145.18;100.00;60484.78;5061977;28;20451;-64
2023/02/15 08:53:03;;;;;;;19.00;12.05;;;;;;;-145.18;100.00;60484.78;5049705;28;20062;-63
2023/02/15 08:55:29;;;;;;;17.80;11.10;;;;;;;-145.18;100.00;60484.78;5052829;28;20024;-63
2023/02/15 08:57:55;;;;;;;18.77;11.75;;;;;;;-145.18;100.00;60484.78;5052858;28;20091;-62
2023/02/15 09:00:22;;;;;;;16.75;10.98;;;;;;;-145.18;100.00;60484.78;5052911;28;20063;-62
2023/02/15 09:02:48;;;;;;;18.73;11.90;;;;;;;-145.18;100.00;60484.78;5050550;28;20025;-63
2023/02/15 09:05:13;;;;;;;18.33;11.87;;;;;;;-145.18;100.00;60484.78;5060018;28;20106;-63
2023/02/15 09:07:38;;;;;;;19.73;12.53;;;;;;;-145.18;100.00;60484.78;5071496;28;20048;-63
2023/02/15 09:10:05;;;;;;;21.57;14.00;;;;;;;-145.18;100.00;60484.78;5067492;28;20748;-63
2023/02/15 09:12:30;;;;;;;26.20;14.53;;;;;;;-145.18;100.00;60484.78;5048400;28;20496;-63
2023/02/15 09:14:55;;;;;;;25.57;15.50;;;;;;;-145.18;100.00;60484.78;5052547;28;20021;-63
2023/02/15 09:17:21;;;;;;;26.67;15.73;;;;;;;-145.18;100.00;60484.78;5052653;28;20053;-62
2023/02/15 09:19:46;;;;;;;25.97;15.27;;;;;;;-145.18;100.00;60484.78;5052486;28;20101;-62
2023/02/15 09:22:12;;;;;;;24.20;15.30;;;;;;;-145.18;100.00;60484.78;5052599;28;20028;-62
2023/02/15 09:24:37;;;;;;;27.67;16.03;;;;;;;-145.18;100.00;60484.78;5052214;28;20154;-63
2023/02/15 09:27:02;;;;;;;27.37;16.63;;;;;;;-145.18;100.00;60484.78;5055093;28;20044;-62
2023/02/15 09:29:28;;;;;;;26.57;15.33;;;;;;;-145.18;100.00;60484.78;5070625;28;20065;-62
2023/02/15 09:31:53;;;;;;;28.50;16.03;;;;;;;-145.18;100.00;60484.78;5070677;28;20028;-63
2023/02/15 09:34:21;;;;;;;30.03;17.07;;;;;;;-145.18;100.00;60484.78;5071114;28;20016;-62
2023/02/15 09:36:46;;;;;;;29.77;17.53;;;;;;;-145.18;100.00;60484.78;5070927;28;20471;-63
2023/02/15 09:39:18;;;;;;;32.13;17.43;;;;;;;-145.18;100.00;60484.78;5070573;28;20012;-62
2023/02/15 09:41:43;;;;;;;;;;;;;;;-145.18;100.00;60484.78;5071284;28;20047;-62
2023/02/15 09:44:43;;;;;;;32.07;17.57;;;;;;;-145.18;100.00;60484.78;5064701;28;19909;-62
2023/02/15 09:47:08;;;;;;;31.90;17.37;;;;;;;-145.18;100.00;60484.78;5051975;28;20383;-62
2023/02/15 09:50:02;;;;;;;31.50;18.37;;;;;;;-145.18;100.00;60484.78;5052180;28;20029;-62
2023/02/15 09:52:48;;;;;;;30.97;17.70;;;;;;;-145.18;100.00;60484.78;5051710;28;20029;-62
2023/02/15 09:55:31;;;;;;;31.43;18.20;;;;;;;-145.18;100.00;60484.78;5052561;28;20032;-62
2023/02/15 09:58:47;;;;;;;32.93;19.27;;;;;;;-145.18;100.00;60484.78;5056744;28;20111;-63
2023/02/15 10:01:38;;;;;;;33.60;18.60;;;;;;;-145.18;100.00;60484.78;4983126;28;20541;-63
2023/02/15 10:04:31;;;;;;;33.20;18.50;;;;;;;-145.18;100.00;60484.78;4968868;28;20497;-62
2023/02/15 10:07:01;;;;;;;32.10;19.63;;;;;;;-145.18;100.00;60484.78;4988349;28;20026;-63
2023/02/15 10:09:32;;;;;;;33.97;18.37;;;;;;;-145.18;100.00;60484.78;4988655;28;20426;-63
2023/02/15 10:12:22;;;;;;;31.08;18.15;;;;;;;-145.18;100.00;60484.78;4977396;28;20042;-62
2023/02/15 10:15:18;;;;;;;34.97;19.73;;;;;;;-145.18;100.00;60484.78;4970139;28;20078;-63
2023/02/15 10:18:08;;;;;;;35.63;19.00;;;;;;;-145.18;100.00;60484.78;4969730;28;20023;-62
2023/02/15 10:21:02;;;;;;;30.37;17.10;;;;;;;-145.18;100.00;60484.78;4969269;28;20660;-63
2023/02/15 10:23:39;;;;;;;29.40;16.53;;;;;;;-145.18;100.00;60484.78;4970194;28;20854;-63
2023/02/15 10:26:22;;;;;;;32.77;17.23;;;;;;;-145.18;100.00;60484.78;4970269;28;20455;-62
2023/02/15 10:28:58;;;;;;;30.90;18.10;;;;;;;-145.18;100.00;60484.78;4970213;28;20540;-63
2023/02/15 10:31:28;;;;;;;36.23;18.20;;;;;;;-145.18;100.00;60484.78;4997484;28;20111;-62
2023/02/15 10:34:15;;;;;;;32.37;18.80;;;;;;;-145.18;100.00;60484.78;5049116;28;20462;-63
2023/02/15 10:37:14;;;;;;;30.73;17.73;;;;;;;-145.18;100.00;60484.78;5051942;28;20115;-63
2023/02/15 10:39:51;;;;;;;31.70;17.77;;;;;;;-145.18;100.00;60484.78;5051180;28;20092;-62
2023/02/15 10:42:31;;;;;;;29.50;17.80;;;;;;;-145.18;100.00;60484.78;5051006;28;20033;-62
2023/02/15 10:45:18;;;;;;;28.20;16.07;;;;;;;-145.18;100.00;60484.78;5051324;28;20538;-62
2023/02/15 10:47:49;;;;;;;32.50;16.20;;;;;;;-145.18;100.00;60484.78;5051293;28;20050;-62
2023/02/15 10:50:14;;;;;;;33.45;17.55;;;;;;;-145.18;100.00;60484.78;5047571;28;20376;-62
2023/02/15 10:52:40;;;;;;;32.43;17.37;;;;;;;-145.18;100.00;60484.78;5050192;28;20104;-62
2023/02/15 10:55:18;;;;;;;30.73;17.53;;;;;;;-145.18;100.00;60484.78;5050908;28;20043;-62
2023/02/15 10:58:05;;;;;;;31.90;17.57;;;;;;;-145.18;100.00;60484.78;5050912;28;20468;-63
2023/02/15 11:00:39;;;;;;;29.60;15.83;;;;;;;-145.18;100.00;60484.78;5051100;28;20032;-62
2023/02/15 11:03:53;;;;;;;28.77;16.97;;;;;;;-145.18;100.00;60484.78;5047020;28;20494;-63
2023/02/15 11:06:21;;;;;;;27.87;16.90;;;;;;;-145.18;100.00;60484.78;5048016;28;20104;-63
2023/02/15 11:08:53;;;;;;;29.70;16.80;;;;;;;-145.18;100.00;60484.78;5049933;28;20029;-63
2023/02/15 11:11:22;;;;;;;31.87;17.43;;;;;;;-145.18;100.00;60484.78;5054346;28;20115;-62
2023/02/15 11:13:54;;;;;;;30.03;15.77;;;;;;;-145.18;100.00;60484.78;5060423;28;20028;-62
2023/02/15 11:16:32;;;;;;;29.90;15.47;;;;;;;-145.18;100.00;60484.78;5073579;28;20028;-63
2023/02/15 11:19:04;;;;;;;28.17;15.80;;;;;;;-145.18;100.00;60484.78;5055788;28;20029;-62
2023/02/15 11:21:36;;;;;;;27.20;15.77;;;;;;;-145.18;100.00;60484.78;5054596;28;20089;-64
2023/02/15 11:24:11;;;;;;;24.60;14.60;;;;;;;-145.18;100.00;60484.78;5054842;28;20344;-63
2023/02/15 11:26:42;;;;;;;29.20;15.60;;;;;;;-145.18;100.00;60484.78;5054090;28;20028;-63
2023/02/15 11:29:23;;;;;;;31.67;16.55;;;;;;;-145.18;100.00;60484.78;5054652;28;20024;-62
2023/02/15 11:31:59;;;;;;;28.20;15.87;;;;;;;-145.18;100.00;60484.78;5054324;28;20021;-62
2023/02/15 11:34:34;;;;;;;30.57;16.20;;;;;;;-145.18;100.00;60484.78;5054261;28;20024;-63